createdAt,value
2022-11-01T00:01:56.762Z,13.75
2022-11-01T00:04:24.275Z,13.68
2022-11-01T00:06:51.453Z,13.15
2022-11-01T00:09:18.805Z,12.48
2022-11-01T00:11:45.846Z,11.52
2022-11-01T00:14:13.911Z,11.40
2022-11-01T00:16:41.104Z,10.67
2022-11-01T00:19:08.367Z,10.80
2022-11-01T00:21:35.407Z,11.27
2022-11-01T00:24:02.506Z,10.98
2022-11-01T00:26:29.585Z,10.85
2022-11-01T00:28:56.967Z,10.68
2022-11-01T00:31:24.417Z,11.20
2022-11-01T00:33:51.799Z,11.10
2022-11-01T00:36:19.151Z,11.23
2022-11-01T00:38:49.625Z,10.73
2022-11-01T00:41:16.795Z,11.00
2022-11-01T00:43:43.867Z,11.75
2022-11-01T00:46:11.292Z,11.77
2022-11-01T00:48:40.172Z,13.93
2022-11-01T00:51:07.285Z,14.32
2022-11-01T00:53:34.385Z,12.47
2022-11-01T00:56:02.203Z,10.35
2022-11-01T00:58:29.277Z,10.10
2022-11-01T01:00:56.477Z,10.63
2022-11-01T01:03:23.597Z,10.98
2022-11-01T01:05:51.575Z,13.05
2022-11-01T01:08:18.653Z,10.73
2022-11-01T01:10:45.844Z,10.15
2022-11-01T01:13:12.943Z,9.25
2022-11-01T01:15:40.463Z,8.95
2022-11-01T01:18:07.535Z,9.97
2022-11-01T01:20:34.619Z,9.73
2022-11-01T01:23:01.755Z,9.35
2022-11-01T01:25:29.092Z,9.50
2022-11-01T01:27:56.487Z,10.05
2022-11-01T01:30:23.627Z,10.23
2022-11-01T01:32:50.787Z,10.30
2022-11-01T01:35:17.916Z,11.73
2022-11-01T01:37:44.941Z,10.85
2022-11-01T01:40:12.074Z,10.70
2022-11-01T01:42:40.393Z,11.25
2022-11-01T01:45:27.626Z,9.90
2022-11-01T01:47:55.835Z,9.70
2022-11-01T01:50:29.158Z,11.13
2022-11-01T01:52:59.859Z,9.00
2022-11-01T01:55:29.044Z,9.15
2022-11-01T01:57:57.576Z,9.48
2022-11-01T02:00:24.839Z,9.48
2022-11-01T02:02:52.075Z,9.75
2022-11-01T02:05:38.627Z,10.05
2022-11-01T02:08:06.592Z,10.07
2022-11-01T02:10:34.303Z,12.68
2022-11-01T02:13:01.347Z,10.20
2022-11-01T02:15:33.190Z,9.85
2022-11-01T02:18:07.963Z,8.25
2022-11-01T02:20:34.996Z,9.77
2022-11-01T02:23:05.375Z,10.13
2022-11-01T02:25:44.090Z,11.88
2022-11-01T02:28:22.251Z,11.35
2022-11-01T02:31:00.756Z,11.83
2022-11-01T02:33:33.379Z,11.90
2022-11-01T02:36:17.789Z,11.57
2022-11-01T02:38:48.662Z,11.57
2022-11-01T02:41:19.320Z,12.05
2022-11-01T02:43:49.751Z,10.68
2022-11-01T02:46:37.998Z,11.50
2022-11-01T02:49:05.236Z,10.70
2022-11-01T02:51:33.295Z,10.95
2022-11-01T02:54:02.273Z,12.63
2022-11-01T02:56:29.383Z,9.00
2022-11-01T02:58:56.524Z,9.45
2022-11-01T03:01:25.626Z,11.27
2022-11-01T03:03:54.233Z,8.73
2022-11-01T03:06:31.465Z,10.23
2022-11-01T03:09:01.310Z,13.80
2022-11-01T03:11:34.225Z,11.00
2022-11-01T03:14:26.414Z,11.50
2022-11-01T03:17:03.013Z,9.43
2022-11-01T03:19:38.663Z,9.15
2022-11-01T03:22:06.683Z,9.90
2022-11-01T03:24:40.749Z,11.05
2022-11-01T03:27:27.752Z,10.45
2022-11-01T03:30:01.076Z,10.27
2022-11-01T03:32:30.991Z,10.77
2022-11-01T03:34:59.053Z,9.30
2022-11-01T03:37:27.363Z,10.57
2022-11-01T03:39:54.941Z,9.10
2022-11-01T03:42:23.297Z,10.13
2022-11-01T03:44:53.080Z,11.73
2022-11-01T03:47:20.389Z,10.02
2022-11-01T03:49:47.457Z,10.30
2022-11-01T03:52:14.600Z,10.75
2022-11-01T03:54:41.655Z,8.73
2022-11-01T03:57:08.813Z,9.48
2022-11-01T03:59:35.861Z,11.90
2022-11-01T04:02:03.059Z,10.52
2022-11-01T04:04:30.254Z,10.13
2022-11-01T04:06:57.314Z,10.30
2022-11-01T04:09:24.365Z,10.10
2022-11-01T04:11:51.425Z,9.75
2022-11-01T04:14:38.397Z,10.45
2022-11-01T04:17:25.348Z,11.30
2022-11-01T04:20:12.300Z,11.60
2022-11-01T04:22:39.545Z,11.02
2022-11-01T04:25:06.631Z,10.20
2022-11-01T04:27:33.715Z,11.75
2022-11-01T04:30:00.764Z,10.73
2022-11-01T04:32:27.875Z,14.88
2022-11-01T04:34:54.922Z,15.50
2022-11-01T04:37:22.046Z,15.53
2022-11-01T04:39:49.077Z,13.27
2022-11-01T04:42:16.145Z,13.43
2022-11-01T04:44:43.208Z,11.48
2022-11-01T04:47:10.277Z,14.15
2022-11-01T04:49:37.312Z,12.75
2022-11-01T04:52:04.400Z,13.07
2022-11-01T04:54:33.458Z,11.32
2022-11-01T04:57:01.156Z,11.57
2022-11-01T04:59:28.333Z,12.82
2022-11-01T05:01:55.445Z,13.17
2022-11-01T05:04:22.618Z,11.23
2022-11-01T05:06:49.665Z,11.77
2022-11-01T05:09:16.815Z,10.27
2022-11-01T05:11:43.845Z,11.10
2022-11-01T05:14:10.905Z,13.75
2022-11-01T05:16:37.951Z,12.48
2022-11-01T05:19:04.988Z,14.07
2022-11-01T05:21:32.077Z,12.80
2022-11-01T05:23:59.108Z,11.35
2022-11-01T05:26:27.718Z,11.50
2022-11-01T05:28:54.791Z,12.57
2022-11-01T05:31:21.869Z,12.88
2022-11-01T05:33:48.975Z,11.50
2022-11-01T05:36:15.987Z,11.70
2022-11-01T05:38:43.036Z,11.90
2022-11-01T05:41:10.292Z,13.77
2022-11-01T05:43:37.431Z,12.43
2022-11-01T05:46:05.585Z,11.90
2022-11-01T05:48:32.636Z,12.20
2022-11-01T05:50:59.731Z,14.00
2022-11-01T05:53:26.817Z,13.48
2022-11-01T05:55:56.456Z,13.35
2022-11-01T05:58:27.931Z,11.95
2022-11-01T06:01:01.480Z,12.00
2022-11-01T06:03:28.747Z,12.73
2022-11-01T06:05:55.808Z,11.35
2022-11-01T06:08:22.874Z,13.02
2022-11-01T06:10:49.971Z,11.03
2022-11-01T06:13:17.075Z,13.15
2022-11-01T06:15:44.119Z,11.35
2022-11-01T06:18:11.621Z,9.65
2022-11-01T06:20:38.767Z,9.88
2022-11-01T06:23:09.961Z,9.65
2022-11-01T06:25:37.259Z,11.10
2022-11-01T06:28:04.546Z,11.02
2022-11-01T06:30:31.772Z,10.70
2022-11-01T06:33:02.502Z,11.93
2022-11-01T06:35:29.812Z,13.52
2022-11-01T06:38:01.902Z,11.05
2022-11-01T06:40:28.935Z,10.63
2022-11-01T06:43:00.175Z,10.82
2022-11-01T06:45:27.455Z,10.20
2022-11-01T06:47:54.581Z,10.88
2022-11-01T06:50:21.720Z,12.18
2022-11-01T06:52:48.931Z,11.07
2022-11-01T06:55:16.106Z,11.15
2022-11-01T06:57:43.506Z,11.02
2022-11-01T07:00:11.040Z,10.88
2022-11-01T07:02:38.326Z,11.43
2022-11-01T07:05:05.607Z,11.20
2022-11-01T07:07:32.723Z,11.07
2022-11-01T07:09:59.826Z,11.50
2022-11-01T07:12:26.943Z,10.80
2022-11-01T07:14:53.967Z,10.75
2022-11-01T07:17:21.070Z,10.82
2022-11-01T07:19:48.098Z,10.85
2022-11-01T07:22:15.185Z,15.53
2022-11-01T07:24:42.251Z,22.63
2022-11-01T07:27:09.298Z,13.15
2022-11-01T07:29:36.449Z,10.65
2022-11-01T07:32:03.510Z,10.98
2022-11-01T07:34:30.554Z,13.07
2022-11-01T07:36:57.630Z,11.65
2022-11-01T07:39:24.879Z,11.40
2022-11-01T07:41:54.099Z,11.13
2022-11-01T07:44:21.143Z,10.48
2022-11-01T07:46:48.225Z,9.90
2022-11-01T07:49:15.282Z,9.68
2022-11-01T07:51:42.271Z,10.40
2022-11-01T07:54:09.363Z,12.05
2022-11-01T07:56:36.412Z,10.95
2022-11-01T07:59:03.524Z,16.73
2022-11-01T08:01:30.675Z,18.53
2022-11-01T08:03:57.805Z,16.73
2022-11-01T08:06:24.871Z,16.05
2022-11-01T08:08:51.922Z,16.48
2022-11-01T08:11:19.509Z,14.70
2022-11-01T08:13:46.918Z,20.95
2022-11-01T08:16:18.071Z,15.85
2022-11-01T08:18:45.264Z,14.60
2022-11-01T08:21:18.478Z,17.83
2022-11-01T08:23:46.020Z,14.57
2022-11-01T08:26:13.345Z,13.00
2022-11-01T08:28:40.401Z,13.43
2022-11-01T08:31:08.445Z,12.35
2022-11-01T08:33:35.802Z,13.23
2022-11-01T08:36:03.451Z,11.10
2022-11-01T08:38:30.496Z,11.57
2022-11-01T08:40:57.451Z,11.07
2022-11-01T08:43:24.609Z,13.75
2022-11-01T08:45:51.637Z,13.13
2022-11-01T08:48:18.721Z,14.13
2022-11-01T08:50:45.835Z,16.63
2022-11-01T08:53:13.681Z,16.77
2022-11-01T08:55:40.625Z,14.82
2022-11-01T08:58:08.338Z,17.25
2022-11-01T09:00:36.057Z,15.05
2022-11-01T09:03:03.142Z,13.30
2022-11-01T09:05:31.377Z,12.15
2022-11-01T09:07:59.881Z,12.48
2022-11-01T09:10:28.434Z,11.63
2022-11-01T09:12:55.490Z,11.15
2022-11-01T09:15:22.563Z,12.00
2022-11-01T09:17:49.748Z,10.93
2022-11-01T09:20:16.886Z,10.80
2022-11-01T09:22:43.970Z,10.98
2022-11-01T09:25:11.360Z,9.40
2022-11-01T09:27:38.732Z,9.80
2022-11-01T09:30:06.384Z,8.68
2022-11-01T09:32:33.425Z,8.43
2022-11-01T09:35:00.665Z,9.97
2022-11-01T09:37:27.764Z,10.63
2022-11-01T09:39:54.820Z,9.25
2022-11-01T09:42:29.135Z,8.60
2022-11-01T09:44:59.312Z,8.30
2022-11-01T09:47:27.957Z,8.25
2022-11-01T09:50:00.792Z,8.70
2022-11-01T09:52:27.856Z,9.38
2022-11-01T09:54:54.968Z,9.90
2022-11-01T09:57:26.571Z,9.48
2022-11-01T10:00:02.169Z,8.02
2022-11-01T10:02:50.141Z,8.17
2022-11-01T10:05:20.595Z,7.78
2022-11-01T10:07:47.619Z,8.55
2022-11-01T10:10:36.800Z,7.43
2022-11-01T10:13:13.331Z,7.00
2022-11-01T10:16:00.401Z,8.52
2022-11-01T10:18:28.117Z,6.38
2022-11-01T10:20:56.659Z,6.82
2022-11-01T10:23:30.131Z,5.90
2022-11-01T10:25:57.323Z,5.75
2022-11-01T10:28:30.386Z,4.90
2022-11-01T10:31:02.129Z,6.45
2022-11-01T10:33:32.443Z,7.40
2022-11-01T10:36:02.302Z,6.88
2022-11-01T10:38:49.945Z,6.35
2022-11-01T10:41:22.506Z,6.10
2022-11-01T10:43:53.680Z,4.50
2022-11-01T10:46:23.530Z,5.07
2022-11-01T10:48:52.616Z,4.75
2022-11-01T10:51:26.749Z,3.90
2022-11-01T10:53:56.591Z,3.53
2022-11-01T10:56:43.458Z,4.33
2022-11-01T10:59:13.939Z,4.13
2022-11-01T11:01:42.738Z,3.67
2022-11-01T11:04:16.705Z,2.78
2022-11-01T11:06:44.221Z,3.60
2022-11-01T11:09:18.950Z,2.45
2022-11-01T11:11:47.209Z,2.85
2022-11-01T11:14:15.369Z,2.50
2022-11-01T11:16:47.702Z,3.33
2022-11-01T11:19:19.318Z,4.50
2022-11-01T11:21:48.206Z,4.00
2022-11-01T11:24:19.507Z,3.22
2022-11-01T11:26:49.779Z,3.08
2022-11-01T11:29:35.954Z,2.75
2022-11-01T11:32:03.641Z,2.70
2022-11-01T11:34:32.577Z,3.08
2022-11-01T11:37:00.219Z,4.85
2022-11-01T11:39:27.351Z,3.15
2022-11-01T11:41:54.675Z,3.53
2022-11-01T11:44:41.707Z,4.47
2022-11-01T11:47:24.542Z,2.92
2022-11-01T11:49:54.068Z,2.38
2022-11-01T11:52:28.203Z,2.33
2022-11-01T11:54:55.736Z,2.67
2022-11-01T11:57:25.786Z,3.27
2022-11-01T11:59:53.989Z,2.30
2022-11-01T12:02:23.213Z,3.00
2022-11-01T12:04:59.706Z,1.42
2022-11-01T12:07:29.006Z,3.28
2022-11-01T12:09:56.853Z,1.60
2022-11-01T12:12:26.424Z,3.45
2022-11-01T12:14:54.397Z,2.55
2022-11-01T12:17:41.345Z,3.60
2022-11-01T12:20:10.342Z,4.00
2022-11-01T12:22:38.553Z,2.87
2022-11-01T12:25:08.232Z,2.40
2022-11-01T12:27:36.041Z,2.15
2022-11-01T12:30:10.314Z,1.45
2022-11-01T12:32:40.660Z,3.70
2022-11-01T12:35:12.076Z,1.38
2022-11-01T12:37:59.047Z,1.75
2022-11-01T12:40:31.114Z,2.87
2022-11-01T12:42:59.200Z,2.17
2022-11-01T12:45:30.057Z,2.20
2022-11-01T12:48:00.323Z,2.03
2022-11-01T12:50:30.796Z,2.38
2022-11-01T12:53:01.865Z,2.25
2022-11-01T12:55:32.474Z,2.70
2022-11-01T12:57:59.808Z,2.33
2022-11-01T13:00:31.647Z,4.03
2022-11-01T13:03:18.644Z,2.58
2022-11-01T13:05:47.325Z,2.67
2022-11-01T13:08:34.320Z,4.20
2022-11-01T13:11:09.576Z,4.20
2022-11-01T13:13:50.294Z,2.57
2022-11-01T13:16:25.527Z,1.70
2022-11-01T13:19:04.000Z,3.70
2022-11-01T13:21:35.787Z,2.53
2022-11-01T13:24:22.745Z,4.15
2022-11-01T13:26:52.436Z,1.88
2022-11-01T13:29:24.405Z,2.50
2022-11-01T13:31:58.111Z,4.05
2022-11-01T13:34:28.399Z,2.78
2022-11-01T13:37:15.399Z,5.82
2022-11-01T13:39:42.423Z,4.10
2022-11-01T13:42:17.695Z,5.13
2022-11-01T13:44:48.343Z,3.30
2022-11-01T13:47:22.341Z,2.70
2022-11-01T13:49:59.567Z,2.70
2022-11-01T13:52:28.623Z,6.30
2022-11-01T13:55:05.059Z,2.78
2022-11-01T13:57:32.474Z,3.63
2022-11-01T14:00:00.619Z,4.80
2022-11-01T14:02:27.843Z,2.90
2022-11-01T14:04:55.517Z,4.18
2022-11-01T14:07:24.027Z,3.08
2022-11-01T14:09:52.378Z,2.58
2022-11-01T14:12:36.312Z,2.33
2022-11-01T14:15:21.341Z,2.70
2022-11-01T14:17:57.651Z,2.85
2022-11-01T14:20:25.722Z,3.40
2022-11-01T14:22:53.276Z,3.85
2022-11-01T14:28:12.244Z,2.37
2022-11-01T14:30:42.619Z,4.10
2022-11-01T14:33:13.683Z,3.58
2022-11-01T14:35:40.973Z,2.13
2022-11-01T14:38:11.927Z,4.03
2022-11-01T14:40:56.666Z,1.88
2022-11-01T14:43:25.974Z,2.42
2022-11-01T14:46:03.016Z,2.90
2022-11-01T14:48:34.231Z,4.05
2022-11-01T14:51:21.435Z,3.20
2022-11-01T14:53:49.332Z,4.03
2022-11-01T14:56:18.070Z,2.80
2022-11-01T14:58:45.406Z,3.40
2022-11-01T15:01:23.296Z,2.47
2022-11-01T15:03:59.139Z,3.00
2022-11-01T15:06:27.896Z,2.92
2022-11-01T15:08:59.014Z,1.83
2022-11-01T15:11:28.505Z,2.75
2022-11-01T15:13:56.403Z,2.40
2022-11-01T15:16:26.654Z,3.13
2022-11-01T15:18:55.859Z,2.08
2022-11-01T15:21:27.151Z,2.83
2022-11-01T15:23:58.338Z,3.60
2022-11-01T15:26:27.589Z,3.75
2022-11-01T15:28:57.246Z,2.47
2022-11-01T15:31:24.412Z,2.75
2022-11-01T15:33:54.949Z,4.60
2022-11-01T15:36:23.570Z,2.72
2022-11-01T15:38:52.446Z,2.00
2022-11-01T15:41:21.938Z,3.13
2022-11-01T15:43:53.257Z,4.00
2022-11-01T15:46:21.005Z,3.07
2022-11-01T15:48:48.518Z,5.15
2022-11-01T15:51:22.970Z,2.92
2022-11-01T15:53:52.390Z,3.15
2022-11-01T15:56:22.965Z,1.85
2022-11-01T16:01:31.592Z,3.53
2022-11-01T16:04:03.730Z,3.30
2022-11-01T16:06:37.023Z,4.83
2022-11-01T16:09:08.950Z,4.00
2022-11-01T16:11:36.241Z,4.28
2022-11-01T16:14:07.324Z,4.70
2022-11-01T16:16:54.326Z,2.60
2022-11-01T16:19:33.368Z,3.50
2022-11-01T16:22:00.431Z,3.58
2022-11-01T16:24:27.578Z,4.47
2022-11-01T16:26:54.737Z,6.90
2022-11-01T16:29:42.652Z,7.43
2022-11-01T16:32:19.008Z,7.35
2022-11-01T16:34:46.854Z,7.95
2022-11-01T16:37:20.131Z,6.97
2022-11-01T16:39:47.535Z,8.55
2022-11-01T16:42:15.967Z,7.40
2022-11-01T16:44:44.136Z,5.50
2022-11-01T16:47:15.318Z,10.85
2022-11-01T16:49:46.287Z,11.07
2022-11-01T16:52:13.390Z,9.48
2022-11-01T16:54:40.449Z,9.45
2022-11-01T16:57:16.334Z,11.17
2022-11-01T16:59:43.391Z,8.48
2022-11-01T17:02:19.115Z,8.43
2022-11-01T17:04:48.233Z,7.82
2022-11-01T17:07:15.178Z,6.40
2022-11-01T17:09:42.425Z,8.27
2022-11-01T17:12:11.317Z,8.07
2022-11-01T17:14:38.490Z,7.05
2022-11-01T17:17:09.090Z,8.32
2022-11-01T17:19:38.467Z,10.07
2022-11-01T17:22:07.262Z,12.65
2022-11-01T17:24:35.293Z,13.32
2022-11-01T17:27:05.015Z,15.50
2022-11-01T17:29:32.614Z,16.35
2022-11-01T17:32:00.923Z,15.23
2022-11-01T17:34:28.853Z,25.63
2022-11-01T17:36:57.412Z,9.75
2022-11-01T17:39:26.974Z,8.90
2022-11-01T17:41:54.793Z,10.03
2022-11-01T17:44:21.941Z,7.78
2022-11-01T17:46:48.976Z,8.65
2022-11-01T17:49:16.785Z,10.27
2022-11-01T17:51:44.107Z,9.57
2022-11-01T17:54:11.245Z,9.57
2022-11-01T17:56:38.786Z,17.05
2022-11-01T17:59:05.865Z,12.88
2022-11-01T18:01:33.170Z,14.25
2022-11-01T18:04:00.314Z,12.75
2022-11-01T18:06:27.344Z,10.65
2022-11-01T18:08:54.401Z,10.55
2022-11-01T18:11:32.118Z,12.47
2022-11-01T18:14:19.062Z,9.50
2022-11-01T18:16:46.125Z,8.45
2022-11-01T18:19:14.208Z,9.15
2022-11-01T18:21:49.023Z,9.88
2022-11-01T18:24:22.457Z,9.15
2022-11-01T18:26:51.229Z,10.48
2022-11-01T18:29:21.528Z,11.65
2022-11-01T18:31:58.029Z,13.15
2022-11-01T18:34:26.035Z,10.98
2022-11-01T18:36:59.108Z,11.57
2022-11-01T18:39:46.669Z,15.63
2022-11-01T18:42:13.881Z,18.05
2022-11-01T18:44:40.539Z,21.50
2022-11-01T18:47:13.092Z,22.00
2022-11-01T18:49:40.188Z,18.08
2022-11-01T18:52:17.680Z,12.77
2022-11-01T18:54:50.012Z,15.90
2022-11-01T18:57:20.237Z,13.85
2022-11-01T18:59:50.667Z,10.20
2022-11-01T19:02:19.356Z,7.85
2022-11-01T19:04:47.329Z,8.15
2022-11-01T19:07:16.797Z,8.70
2022-11-01T19:09:47.488Z,5.32
2022-11-01T19:12:16.541Z,8.55
2022-11-01T19:14:44.363Z,9.45
2022-11-01T19:17:19.700Z,13.02
2022-11-01T19:19:47.180Z,14.13
2022-11-01T19:22:34.236Z,14.70
2022-11-01T19:25:02.326Z,14.10
2022-11-01T19:27:29.542Z,22.10
2022-11-01T19:29:58.256Z,21.87
2022-11-01T19:32:25.717Z,16.05
2022-11-01T19:34:53.412Z,13.18
2022-11-01T19:37:23.243Z,11.55
2022-11-01T19:39:50.504Z,14.10
2022-11-01T19:42:35.168Z,17.05
2022-11-01T19:45:08.057Z,20.50
2022-11-01T19:47:44.916Z,21.17
2022-11-01T19:50:19.574Z,18.88
2022-11-01T19:52:47.670Z,16.08
2022-11-01T19:55:35.146Z,9.77
2022-11-01T19:58:02.861Z,9.70
2022-11-01T20:00:30.118Z,11.30
2022-11-01T20:02:59.175Z,10.95
2022-11-01T20:05:28.931Z,11.93
2022-11-01T20:08:02.578Z,9.48
2022-11-01T20:10:30.174Z,10.07
2022-11-01T20:12:57.250Z,10.02
2022-11-01T20:15:24.715Z,8.00
2022-11-01T20:17:51.859Z,8.82
2022-11-01T20:20:18.918Z,8.63
2022-11-01T20:22:54.931Z,9.75
2022-11-01T20:25:33.563Z,10.00
2022-11-01T20:28:00.931Z,8.77
2022-11-01T20:30:28.111Z,8.43
2022-11-01T20:32:55.202Z,10.40
2022-11-01T20:35:22.262Z,10.20
2022-11-01T20:37:49.340Z,12.00
2022-11-01T20:40:17.063Z,9.45
2022-11-01T20:42:44.074Z,9.75
2022-11-01T20:45:11.326Z,11.03
2022-11-01T20:47:41.409Z,9.32
2022-11-01T20:50:12.347Z,10.35
2022-11-01T20:52:40.377Z,9.63
2022-11-01T20:55:09.210Z,9.40
2022-11-01T20:57:36.268Z,10.60
2022-11-01T21:00:04.076Z,11.25
2022-11-01T21:02:31.094Z,11.27
2022-11-01T21:05:01.471Z,9.80
2022-11-01T21:07:30.288Z,11.20
2022-11-01T21:09:57.583Z,10.67
2022-11-01T21:12:32.044Z,9.80
2022-11-01T21:15:02.089Z,9.98
2022-11-01T21:17:29.512Z,9.30
2022-11-01T21:19:56.648Z,13.10
2022-11-01T21:22:23.983Z,12.70
2022-11-01T21:24:51.380Z,15.27
2022-11-01T21:27:27.248Z,11.18
2022-11-01T21:29:59.631Z,12.32
2022-11-01T21:32:29.699Z,12.27
2022-11-01T21:34:57.897Z,8.35
2022-11-01T21:37:27.820Z,9.70
2022-11-01T21:40:00.271Z,10.70
2022-11-01T21:42:33.479Z,10.00
2022-11-01T21:45:00.928Z,11.23
2022-11-01T21:47:29.964Z,9.73
2022-11-01T21:49:57.184Z,10.68
2022-11-01T21:52:24.637Z,11.82
2022-11-01T21:54:52.644Z,9.68
2022-11-01T21:57:19.788Z,9.98
2022-11-01T21:59:46.480Z,9.77
2022-11-01T22:02:14.473Z,12.32
2022-11-01T22:04:42.042Z,10.60
2022-11-01T22:07:10.081Z,9.45
2022-11-01T22:09:37.794Z,9.77
2022-11-01T22:12:05.094Z,13.03
2022-11-01T22:14:32.133Z,10.97
2022-11-01T22:17:00.910Z,12.32
2022-11-01T22:19:27.998Z,13.13
2022-11-01T22:21:55.166Z,12.15
2022-11-01T22:24:23.479Z,10.48
2022-11-01T22:26:50.591Z,12.05
2022-11-01T22:29:17.628Z,10.73
2022-11-01T22:31:44.715Z,9.50
2022-11-01T22:34:11.797Z,9.82
2022-11-01T22:36:40.304Z,9.30
2022-11-01T22:39:16.489Z,7.80
2022-11-01T22:41:43.860Z,9.27
2022-11-01T22:44:12.460Z,9.02
2022-11-01T22:46:39.667Z,10.35
2022-11-01T22:49:13.021Z,9.52
2022-11-01T22:51:43.004Z,10.50
2022-11-01T22:54:29.037Z,10.07
2022-11-01T22:57:10.904Z,10.32
2022-11-01T22:59:40.242Z,9.77
2022-11-01T23:02:27.456Z,10.57
2022-11-01T23:05:01.978Z,7.80
2022-11-01T23:07:33.924Z,8.25
2022-11-01T23:10:05.111Z,8.98
2022-11-01T23:12:52.984Z,8.07
2022-11-01T23:15:26.450Z,7.53
2022-11-01T23:17:53.724Z,7.88
2022-11-01T23:20:20.788Z,5.65
2022-11-01T23:22:47.876Z,6.88
2022-11-01T23:25:14.883Z,7.80
2022-11-01T23:27:44.831Z,5.80
2022-11-01T23:30:12.159Z,6.78
2022-11-01T23:32:39.219Z,8.25
2022-11-01T23:35:12.124Z,7.70
2022-11-01T23:37:38.928Z,7.55
2022-11-01T23:40:15.104Z,6.22
2022-11-01T23:42:42.301Z,7.55
2022-11-01T23:45:14.438Z,7.45
2022-11-01T23:47:41.655Z,6.20
2022-11-01T23:50:09.768Z,7.20
2022-11-01T23:52:44.491Z,5.82
2022-11-01T23:55:31.481Z,6.57
2022-11-01T23:58:00.646Z,5.67
